Enterprise, Florida
Current Conditions -  °F | °C
As of 2:53 AM on Thursday 27 Nov 2014 (Local Time) from KSFB Reporting Station
Clear Clear  
Wind Chill: 43°   Ceiling: Unl
Heat Index: 46°   Visibility: 10mi
Dew Point: 42°   Wind: 6mph
Humidity: 86%   Direction: 310°NW
Pressure: 30.24"   Gusts: NA
Location:  28.9054°N, 81.2458°W
Report Text: KSFB 270753Z AUTO 31005KT 10SM CLR 08/06 A3024 RMK AO2 SLP241 T00780056
Loading
Personal Weather Stations






























Interactive Weather Map New forecast layout! Learn more

10-Day Weather Forecast

Advertisements
Track Severe Weather on mobile